Portada
METAR-TAF:

METAR-TAF

Aeropuertos :

Wichita, Kansas, Estados Unidos

latitud: 37-38-50N, longitud: 097-25-46W, altitud: 406 m

Observación

El informe se hizo hace 35 minutos, a las 04:53 UTC
Viento 7 kt del sur
Temperatura 27°C
Humedad 70%
Presión 1012 hPa
Visibilidad: 16.1 km
Escasas nubes a una altura de 15000 ft
Nubes dispersas a una altura de 25000 ft

METAR: KICT 070453Z COR 17007KT 10SM FEW150 SCT250 27/21 A2988 RMK AO2 SLP099 T02720211

Hora: 00:28 (05:28 UTC)

Pronóstico

El informe se hizo hace 5 horas y 56 minutos, a las 23:32 UTC
Pronóstico válido del 07 a las 00 UTC al 07 a las 24 UTC
Viento 14 kt del sur-sureste
Visibilidad: 10 km
Escasas nubes a una altura de 15000 ft
A partir de las 07 a las 1600 UTC
Viento 15 kt del sur con ráfagas de 24 kt
Visibilidad: 10 km
Escasas nubes a una altura de 6000 ft

TAF: KICT 062332Z 0700/0724 15014KT P6SM FEW150 FM071600 18015G24KT P6SM FEW060

Observaciones y pronósticos meteorológicos de más de 4000 aeropuertos (mensajes METAR y TAF).

Los puntos amarillos y rojos representan las estaciones disponibles.

Ponga el ratón en el punto deseado para ver el nombre de la estación.

Haga clic para ver las observaciones y los pronósticos meteorológicos.

Para cambiar el mapa : haga clic en los botones verdes con una cruz de color negro para hacer un zoom, en el botón verde con un guión para alejar o en las flechas verdes para mapas adyacentes.


METAR-TAF: